sensor_id;sensor_type;location;lat;lon;timestamp;P1;durP1;ratioP1;P2;durP2;ratioP2
5867;SDS011;2960;49.142;7.768;2022-07-18T00:00:14;11.73;;;3.67;;
5867;SDS011;2960;49.142;7.768;2022-07-18T00:02:41;10.47;;;3.43;;
5867;SDS011;2960;49.142;7.768;2022-07-18T00:05:09;10.90;;;3.80;;
5867;SDS011;2960;49.142;7.768;2022-07-18T00:07:37;10.80;;;3.63;;
5867;SDS011;2960;49.142;7.768;2022-07-18T00:10:04;10.67;;;3.60;;
5867;SDS011;2960;49.142;7.768;2022-07-18T00:12:32;11.10;;;3.30;;
5867;SDS011;2960;49.142;7.768;2022-07-18T00:14:59;11.23;;;3.30;;
5867;SDS011;2960;49.142;7.768;2022-07-18T00:17:26;10.70;;;3.60;;
5867;SDS011;2960;49.142;7.768;2022-07-18T00:19:53;10.57;;;3.47;;
5867;SDS011;2960;49.142;7.768;2022-07-18T00:22:22;10.57;;;3.40;;
5867;SDS011;2960;49.142;7.768;2022-07-18T00:24:49;10.40;;;3.30;;
5867;SDS011;2960;49.142;7.768;2022-07-18T00:27:16;10.90;;;3.80;;
5867;SDS011;2960;49.142;7.768;2022-07-18T00:29:43;10.80;;;3.60;;
5867;SDS011;2960;49.142;7.768;2022-07-18T00:32:10;11.03;;;3.40;;
5867;SDS011;2960;49.142;7.768;2022-07-18T00:34:38;10.60;;;3.53;;
5867;SDS011;2960;49.142;7.768;2022-07-18T00:37:05;10.77;;;3.60;;
5867;SDS011;2960;49.142;7.768;2022-07-18T00:39:33;11.87;;;3.70;;
5867;SDS011;2960;49.142;7.768;2022-07-18T00:42:01;12.73;;;3.60;;
5867;SDS011;2960;49.142;7.768;2022-07-18T00:44:28;10.70;;;3.67;;
5867;SDS011;2960;49.142;7.768;2022-07-18T00:46:56;10.80;;;3.70;;
5867;SDS011;2960;49.142;7.768;2022-07-18T00:49:25;10.47;;;3.37;;
5867;SDS011;2960;49.142;7.768;2022-07-18T00:51:53;10.50;;;3.43;;
5867;SDS011;2960;49.142;7.768;2022-07-18T00:54:20;10.60;;;3.40;;
5867;SDS011;2960;49.142;7.768;2022-07-18T00:56:49;10.77;;;3.70;;
5867;SDS011;2960;49.142;7.768;2022-07-18T00:59:17;10.87;;;3.70;;
5867;SDS011;2960;49.142;7.768;2022-07-18T01:01:45;10.80;;;3.67;;
5867;SDS011;2960;49.142;7.768;2022-07-18T01:04:14;10.50;;;3.60;;
5867;SDS011;2960;49.142;7.768;2022-07-18T01:06:44;10.80;;;3.47;;
5867;SDS011;2960;49.142;7.768;2022-07-18T01:09:11;11.00;;;3.43;;
5867;SDS011;2960;49.142;7.768;2022-07-18T01:11:38;11.20;;;3.90;;
5867;SDS011;2960;49.142;7.768;2022-07-18T01:14:07;10.70;;;3.70;;
5867;SDS011;2960;49.142;7.768;2022-07-18T01:16:35;12.20;;;3.67;;
5867;SDS011;2960;49.142;7.768;2022-07-18T01:19:03;10.70;;;3.73;;
5867;SDS011;2960;49.142;7.768;2022-07-18T01:21:32;11.20;;;3.87;;
5867;SDS011;2960;49.142;7.768;2022-07-18T01:23:59;10.70;;;3.80;;
5867;SDS011;2960;49.142;7.768;2022-07-18T01:26:26;10.80;;;3.60;;
5867;SDS011;2960;49.142;7.768;2022-07-18T01:28:54;10.60;;;3.70;;
5867;SDS011;2960;49.142;7.768;2022-07-18T01:31:21;10.97;;;3.30;;
5867;SDS011;2960;49.142;7.768;2022-07-18T01:33:48;11.17;;;3.73;;
5867;SDS011;2960;49.142;7.768;2022-07-18T01:36:15;10.50;;;3.40;;
5867;SDS011;2960;49.142;7.768;2022-07-18T01:38:43;10.27;;;3.33;;
5867;SDS011;2960;49.142;7.768;2022-07-18T01:41:11;11.47;;;3.30;;
5867;SDS011;2960;49.142;7.768;2022-07-18T01:43:39;11.20;;;3.97;;
5867;SDS011;2960;49.142;7.768;2022-07-18T01:46:08;10.37;;;3.30;;
5867;SDS011;2960;49.142;7.768;2022-07-18T01:48:36;10.37;;;3.40;;
5867;SDS011;2960;49.142;7.768;2022-07-18T01:51:04;10.50;;;3.57;;
5867;SDS011;2960;49.142;7.768;2022-07-18T01:53:35;10.63;;;3.67;;
5867;SDS011;2960;49.142;7.768;2022-07-18T01:56:05;10.37;;;3.40;;
5867;SDS011;2960;49.142;7.768;2022-07-18T01:58:33;10.50;;;3.30;;
5867;SDS011;2960;49.142;7.768;2022-07-18T02:01:00;10.80;;;3.40;;
5867;SDS011;2960;49.142;7.768;2022-07-18T02:03:27;10.57;;;3.70;;
5867;SDS011;2960;49.142;7.768;2022-07-18T02:05:55;10.40;;;3.60;;
5867;SDS011;2960;49.142;7.768;2022-07-18T02:08:22;10.40;;;3.43;;
5867;SDS011;2960;49.142;7.768;2022-07-18T02:10:49;10.70;;;3.83;;
5867;SDS011;2960;49.142;7.768;2022-07-18T02:13:17;10.37;;;3.60;;
5867;SDS011;2960;49.142;7.768;2022-07-18T02:15:45;10.80;;;3.70;;
5867;SDS011;2960;49.142;7.768;2022-07-18T02:18:12;10.80;;;4.10;;
5867;SDS011;2960;49.142;7.768;2022-07-18T02:20:39;11.00;;;4.20;;
5867;SDS011;2960;49.142;7.768;2022-07-18T02:23:07;11.20;;;4.27;;
5867;SDS011;2960;49.142;7.768;2022-07-18T02:25:34;10.53;;;3.83;;
5867;SDS011;2960;49.142;7.768;2022-07-18T02:28:01;10.70;;;4.10;;
5867;SDS011;2960;49.142;7.768;2022-07-18T02:30:30;10.90;;;4.20;;
5867;SDS011;2960;49.142;7.768;2022-07-18T02:32:58;10.67;;;3.80;;
5867;SDS011;2960;49.142;7.768;2022-07-18T02:35:25;10.80;;;3.90;;
5867;SDS011;2960;49.142;7.768;2022-07-18T02:37:52;11.50;;;4.40;;
5867;SDS011;2960;49.142;7.768;2022-07-18T02:40:19;11.07;;;4.30;;
5867;SDS011;2960;49.142;7.768;2022-07-18T02:42:46;10.53;;;3.90;;
5867;SDS011;2960;49.142;7.768;2022-07-18T02:45:13;10.50;;;3.80;;
5867;SDS011;2960;49.142;7.768;2022-07-18T02:47:42;11.17;;;4.30;;
5867;SDS011;2960;49.142;7.768;2022-07-18T02:50:09;10.90;;;4.00;;
5867;SDS011;2960;49.142;7.768;2022-07-18T02:52:38;10.83;;;4.03;;
5867;SDS011;2960;49.142;7.768;2022-07-18T02:55:06;10.50;;;3.83;;
5867;SDS011;2960;49.142;7.768;2022-07-18T02:57:35;11.00;;;4.03;;
5867;SDS011;2960;49.142;7.768;2022-07-18T03:00:03;11.00;;;4.23;;
5867;SDS011;2960;49.142;7.768;2022-07-18T03:02:31;11.97;;;4.10;;
5867;SDS011;2960;49.142;7.768;2022-07-18T03:05:00;10.70;;;3.93;;
5867;SDS011;2960;49.142;7.768;2022-07-18T03:07:27;11.50;;;4.00;;
5867;SDS011;2960;49.142;7.768;2022-07-18T03:09:55;10.50;;;3.67;;
5867;SDS011;2960;49.142;7.768;2022-07-18T03:12:22;13.00;;;4.30;;
5867;SDS011;2960;49.142;7.768;2022-07-18T03:14:49;10.90;;;4.20;;
5867;SDS011;2960;49.142;7.768;2022-07-18T03:17:17;10.60;;;3.80;;
5867;SDS011;2960;49.142;7.768;2022-07-18T03:19:44;10.90;;;3.80;;
5867;SDS011;2960;49.142;7.768;2022-07-18T03:22:13;11.00;;;3.97;;
5867;SDS011;2960;49.142;7.768;2022-07-18T03:24:40;11.20;;;3.70;;
5867;SDS011;2960;49.142;7.768;2022-07-18T03:27:07;10.50;;;3.67;;
5867;SDS011;2960;49.142;7.768;2022-07-18T03:29:34;10.27;;;3.60;;
5867;SDS011;2960;49.142;7.768;2022-07-18T03:32:01;11.10;;;3.80;;
5867;SDS011;2960;49.142;7.768;2022-07-18T03:34:29;10.40;;;3.47;;
5867;SDS011;2960;49.142;7.768;2022-07-18T03:36:56;10.63;;;3.80;;
5867;SDS011;2960;49.142;7.768;2022-07-18T03:39:24;10.47;;;3.60;;
5867;SDS011;2960;49.142;7.768;2022-07-18T03:41:51;10.90;;;3.60;;
5867;SDS011;2960;49.142;7.768;2022-07-18T03:44:18;10.27;;;3.37;;
5867;SDS011;2960;49.142;7.768;2022-07-18T03:46:46;10.90;;;3.80;;
5867;SDS011;2960;49.142;7.768;2022-07-18T03:49:14;11.27;;;3.83;;
5867;SDS011;2960;49.142;7.768;2022-07-18T03:51:41;10.73;;;3.63;;
5867;SDS011;2960;49.142;7.768;2022-07-18T03:54:08;10.57;;;3.53;;
5867;SDS011;2960;49.142;7.768;2022-07-18T03:56:37;11.97;;;3.70;;
5867;SDS011;2960;49.142;7.768;2022-07-18T03:59:04;10.53;;;3.63;;
5867;SDS011;2960;49.142;7.768;2022-07-18T04:01:31;11.27;;;3.70;;
5867;SDS011;2960;49.142;7.768;2022-07-18T04:03:59;10.40;;;3.60;;
5867;SDS011;2960;49.142;7.768;2022-07-18T04:06:26;10.60;;;3.63;;
5867;SDS011;2960;49.142;7.768;2022-07-18T04:08:53;10.00;;;3.20;;
5867;SDS011;2960;49.142;7.768;2022-07-18T04:11:20;10.90;;;3.80;;
5867;SDS011;2960;49.142;7.768;2022-07-18T04:13:50;10.50;;;3.70;;
5867;SDS011;2960;49.142;7.768;2022-07-18T04:16:17;11.93;;;3.70;;
5867;SDS011;2960;49.142;7.768;2022-07-18T04:18:44;10.47;;;3.60;;
5867;SDS011;2960;49.142;7.768;2022-07-18T04:21:12;10.30;;;3.73;;
5867;SDS011;2960;49.142;7.768;2022-07-18T04:23:39;10.30;;;3.50;;
5867;SDS011;2960;49.142;7.768;2022-07-18T04:26:07;10.40;;;3.50;;
5867;SDS011;2960;49.142;7.768;2022-07-18T04:28:35;10.63;;;3.50;;
5867;SDS011;2960;49.142;7.768;2022-07-18T04:31:03;10.07;;;3.30;;
5867;SDS011;2960;49.142;7.768;2022-07-18T04:33:30;10.50;;;3.40;;
5867;SDS011;2960;49.142;7.768;2022-07-18T04:35:58;10.80;;;3.83;;
5867;SDS011;2960;49.142;7.768;2022-07-18T04:38:25;10.77;;;3.47;;
5867;SDS011;2960;49.142;7.768;2022-07-18T04:40:52;10.00;;;3.23;;
5867;SDS011;2960;49.142;7.768;2022-07-18T04:43:19;10.20;;;3.40;;
5867;SDS011;2960;49.142;7.768;2022-07-18T04:45:46;10.60;;;3.47;;
5867;SDS011;2960;49.142;7.768;2022-07-18T04:48:14;10.13;;;3.50;;
5867;SDS011;2960;49.142;7.768;2022-07-18T04:50:42;10.77;;;3.40;;
5867;SDS011;2960;49.142;7.768;2022-07-18T04:53:09;10.70;;;3.37;;
5867;SDS011;2960;49.142;7.768;2022-07-18T04:55:36;10.20;;;3.67;;
5867;SDS011;2960;49.142;7.768;2022-07-18T04:58:03;10.40;;;3.40;;
5867;SDS011;2960;49.142;7.768;2022-07-18T05:00:30;10.30;;;3.70;;
5867;SDS011;2960;49.142;7.768;2022-07-18T05:02:58;10.40;;;3.50;;
5867;SDS011;2960;49.142;7.768;2022-07-18T05:05:26;10.40;;;3.60;;
5867;SDS011;2960;49.142;7.768;2022-07-18T05:07:54;10.40;;;3.37;;
5867;SDS011;2960;49.142;7.768;2022-07-18T05:10:22;10.10;;;3.37;;
5867;SDS011;2960;49.142;7.768;2022-07-18T05:12:50;10.27;;;3.50;;
5867;SDS011;2960;49.142;7.768;2022-07-18T05:15:20;10.40;;;3.10;;
5867;SDS011;2960;49.142;7.768;2022-07-18T05:17:49;10.60;;;3.20;;
5867;SDS011;2960;49.142;7.768;2022-07-18T05:20:17;10.50;;;3.27;;
5867;SDS011;2960;49.142;7.768;2022-07-18T05:22:48;10.10;;;3.00;;
5867;SDS011;2960;49.142;7.768;2022-07-18T05:25:16;9.87;;;3.00;;
5867;SDS011;2960;49.142;7.768;2022-07-18T05:27:44;10.00;;;2.80;;
5867;SDS011;2960;49.142;7.768;2022-07-18T05:30:12;10.67;;;3.40;;
5867;SDS011;2960;49.142;7.768;2022-07-18T05:32:40;10.10;;;3.00;;
5867;SDS011;2960;49.142;7.768;2022-07-18T05:35:09;10.00;;;3.07;;
5867;SDS011;2960;49.142;7.768;2022-07-18T05:37:38;10.00;;;3.20;;
5867;SDS011;2960;49.142;7.768;2022-07-18T05:40:08;9.90;;;2.90;;
5867;SDS011;2960;49.142;7.768;2022-07-18T05:42:39;10.13;;;2.90;;
5867;SDS011;2960;49.142;7.768;2022-07-18T05:45:07;10.03;;;2.80;;
5867;SDS011;2960;49.142;7.768;2022-07-18T05:47:36;10.40;;;3.23;;
5867;SDS011;2960;49.142;7.768;2022-07-18T05:50:03;10.10;;;2.93;;
5867;SDS011;2960;49.142;7.768;2022-07-18T05:52:32;10.00;;;2.83;;
5867;SDS011;2960;49.142;7.768;2022-07-18T05:54:59;10.10;;;3.17;;
5867;SDS011;2960;49.142;7.768;2022-07-18T05:57:28;10.07;;;2.90;;
5867;SDS011;2960;49.142;7.768;2022-07-18T05:59:55;10.40;;;3.20;;
5867;SDS011;2960;49.142;7.768;2022-07-18T06:02:22;9.97;;;2.80;;
5867;SDS011;2960;49.142;7.768;2022-07-18T06:04:49;10.13;;;3.00;;
5867;SDS011;2960;49.142;7.768;2022-07-18T06:07:16;10.93;;;3.17;;
5867;SDS011;2960;49.142;7.768;2022-07-18T06:09:43;10.53;;;3.20;;
5867;SDS011;2960;49.142;7.768;2022-07-18T06:12:10;13.00;;;3.07;;
5867;SDS011;2960;49.142;7.768;2022-07-18T06:14:39;10.00;;;2.80;;
5867;SDS011;2960;49.142;7.768;2022-07-18T06:17:06;10.10;;;2.90;;
5867;SDS011;2960;49.142;7.768;2022-07-18T06:19:33;10.17;;;3.07;;
5867;SDS011;2960;49.142;7.768;2022-07-18T06:22:01;10.00;;;2.70;;
5867;SDS011;2960;49.142;7.768;2022-07-18T06:24:28;10.20;;;3.07;;
5867;SDS011;2960;49.142;7.768;2022-07-18T06:26:55;10.30;;;3.10;;
5867;SDS011;2960;49.142;7.768;2022-07-18T06:29:22;10.73;;;3.07;;
5867;SDS011;2960;49.142;7.768;2022-07-18T06:31:51;10.80;;;2.97;;
5867;SDS011;2960;49.142;7.768;2022-07-18T06:34:18;10.13;;;2.80;;
5867;SDS011;2960;49.142;7.768;2022-07-18T06:36:45;10.07;;;2.90;;
5867;SDS011;2960;49.142;7.768;2022-07-18T06:39:12;10.47;;;3.20;;
5867;SDS011;2960;49.142;7.768;2022-07-18T06:41:41;10.40;;;3.00;;
5867;SDS011;2960;49.142;7.768;2022-07-18T06:44:08;10.30;;;3.17;;
5867;SDS011;2960;49.142;7.768;2022-07-18T06:46:36;10.30;;;3.13;;
5867;SDS011;2960;49.142;7.768;2022-07-18T06:49:04;10.23;;;3.10;;
5867;SDS011;2960;49.142;7.768;2022-07-18T06:51:32;10.70;;;3.27;;
5867;SDS011;2960;49.142;7.768;2022-07-18T06:53:59;12.07;;;3.20;;
5867;SDS011;2960;49.142;7.768;2022-07-18T06:56:27;10.43;;;3.40;;
5867;SDS011;2960;49.142;7.768;2022-07-18T06:58:54;10.53;;;3.43;;
5867;SDS011;2960;49.142;7.768;2022-07-18T07:01:21;10.80;;;3.90;;
5867;SDS011;2960;49.142;7.768;2022-07-18T07:03:49;10.43;;;3.43;;
5867;SDS011;2960;49.142;7.768;2022-07-18T07:06:18;10.33;;;3.50;;
5867;SDS011;2960;49.142;7.768;2022-07-18T07:08:45;10.80;;;3.80;;
5867;SDS011;2960;49.142;7.768;2022-07-18T07:11:13;10.67;;;3.77;;
5867;SDS011;2960;49.142;7.768;2022-07-18T07:13:40;10.30;;;3.30;;
5867;SDS011;2960;49.142;7.768;2022-07-18T07:16:07;10.80;;;3.90;;
5867;SDS011;2960;49.142;7.768;2022-07-18T07:18:34;10.50;;;3.67;;
5867;SDS011;2960;49.142;7.768;2022-07-18T07:21:01;10.27;;;3.40;;
5867;SDS011;2960;49.142;7.768;2022-07-18T07:23:30;10.73;;;3.90;;
5867;SDS011;2960;49.142;7.768;2022-07-18T07:25:57;10.57;;;3.63;;
5867;SDS011;2960;49.142;7.768;2022-07-18T07:28:24;10.77;;;3.80;;
5867;SDS011;2960;49.142;7.768;2022-07-18T07:30:51;11.03;;;3.97;;
5867;SDS011;2960;49.142;7.768;2022-07-18T07:33:18;10.70;;;3.93;;
5867;SDS011;2960;49.142;7.768;2022-07-18T07:35:46;11.40;;;3.70;;
5867;SDS011;2960;49.142;7.768;2022-07-18T07:38:13;10.60;;;3.50;;
5867;SDS011;2960;49.142;7.768;2022-07-18T07:40:45;11.60;;;3.67;;
5867;SDS011;2960;49.142;7.768;2022-07-18T07:43:13;10.40;;;3.60;;
5867;SDS011;2960;49.142;7.768;2022-07-18T07:45:42;10.63;;;3.80;;
5867;SDS011;2960;49.142;7.768;2022-07-18T07:48:14;10.70;;;3.70;;
5867;SDS011;2960;49.142;7.768;2022-07-18T07:50:41;10.80;;;4.00;;
5867;SDS011;2960;49.142;7.768;2022-07-18T07:53:08;10.60;;;3.60;;
5867;SDS011;2960;49.142;7.768;2022-07-18T07:55:35;11.07;;;4.20;;
5867;SDS011;2960;49.142;7.768;2022-07-18T07:58:04;10.97;;;3.97;;
5867;SDS011;2960;49.142;7.768;2022-07-18T08:00:31;11.87;;;4.13;;
5867;SDS011;2960;49.142;7.768;2022-07-18T08:02:59;11.10;;;3.90;;
5867;SDS011;2960;49.142;7.768;2022-07-18T08:05:30;10.57;;;3.73;;
5867;SDS011;2960;49.142;7.768;2022-07-18T08:08:00;10.70;;;3.73;;
5867;SDS011;2960;49.142;7.768;2022-07-18T08:10:28;10.60;;;3.70;;
5867;SDS011;2960;49.142;7.768;2022-07-18T08:12:55;10.67;;;3.83;;
5867;SDS011;2960;49.142;7.768;2022-07-18T08:15:24;10.57;;;3.70;;
5867;SDS011;2960;49.142;7.768;2022-07-18T08:17:51;10.50;;;3.40;;
5867;SDS011;2960;49.142;7.768;2022-07-18T08:20:19;11.00;;;4.03;;
5867;SDS011;2960;49.142;7.768;2022-07-18T08:22:54;10.67;;;3.53;;
5867;SDS011;2960;49.142;7.768;2022-07-18T08:25:23;10.73;;;3.90;;
5867;SDS011;2960;49.142;7.768;2022-07-18T08:27:51;10.47;;;3.67;;
5867;SDS011;2960;49.142;7.768;2022-07-18T08:30:18;12.13;;;4.00;;
5867;SDS011;2960;49.142;7.768;2022-07-18T08:32:48;10.73;;;3.87;;
5867;SDS011;2960;49.142;7.768;2022-07-18T08:35:15;11.97;;;3.87;;
5867;SDS011;2960;49.142;7.768;2022-07-18T08:37:43;10.40;;;3.57;;
5867;SDS011;2960;49.142;7.768;2022-07-18T08:40:10;10.70;;;3.50;;
5867;SDS011;2960;49.142;7.768;2022-07-18T08:42:39;11.00;;;3.70;;
5867;SDS011;2960;49.142;7.768;2022-07-18T08:45:07;10.70;;;3.60;;
5867;SDS011;2960;49.142;7.768;2022-07-18T08:47:34;11.43;;;3.70;;
5867;SDS011;2960;49.142;7.768;2022-07-18T08:50:03;11.20;;;3.80;;
5867;SDS011;2960;49.142;7.768;2022-07-18T08:52:32;10.60;;;3.87;;
5867;SDS011;2960;49.142;7.768;2022-07-18T08:55:00;10.50;;;3.73;;
5867;SDS011;2960;49.142;7.768;2022-07-18T08:57:28;11.00;;;3.90;;
5867;SDS011;2960;49.142;7.768;2022-07-18T08:59:56;10.50;;;3.70;;
5867;SDS011;2960;49.142;7.768;2022-07-18T09:02:24;10.10;;;3.33;;
5867;SDS011;2960;49.142;7.768;2022-07-18T09:04:52;10.10;;;3.33;;
5867;SDS011;2960;49.142;7.768;2022-07-18T09:07:25;10.47;;;3.70;;
5867;SDS011;2960;49.142;7.768;2022-07-18T09:09:54;10.30;;;3.70;;
5867;SDS011;2960;49.142;7.768;2022-07-18T09:12:24;10.40;;;3.70;;
5867;SDS011;2960;49.142;7.768;2022-07-18T09:14:53;10.47;;;3.50;;
5867;SDS011;2960;49.142;7.768;2022-07-18T09:17:21;10.40;;;3.37;;
5867;SDS011;2960;49.142;7.768;2022-07-18T09:19:56;10.30;;;3.47;;
5867;SDS011;2960;49.142;7.768;2022-07-18T09:22:28;10.10;;;3.10;;
5867;SDS011;2960;49.142;7.768;2022-07-18T09:24:59;10.30;;;3.20;;
5867;SDS011;2960;49.142;7.768;2022-07-18T09:27:32;10.47;;;3.70;;
5867;SDS011;2960;49.142;7.768;2022-07-18T09:30:22;10.40;;;3.50;;
5867;SDS011;2960;49.142;7.768;2022-07-18T09:32:52;10.17;;;3.40;;
5867;SDS011;2960;49.142;7.768;2022-07-18T09:35:23;10.80;;;3.80;;
5867;SDS011;2960;49.142;7.768;2022-07-18T09:37:58;10.00;;;3.23;;
5867;SDS011;2960;49.142;7.768;2022-07-18T09:40:31;10.20;;;3.33;;
5867;SDS011;2960;49.142;7.768;2022-07-18T09:43:01;10.07;;;3.33;;
5867;SDS011;2960;49.142;7.768;2022-07-18T09:45:31;13.20;;;3.50;;
5867;SDS011;2960;49.142;7.768;2022-07-18T09:48:00;9.97;;;3.43;;
5867;SDS011;2960;49.142;7.768;2022-07-18T09:50:31;9.73;;;3.00;;
5867;SDS011;2960;49.142;7.768;2022-07-18T09:53:08;10.27;;;3.37;;
5867;SDS011;2960;49.142;7.768;2022-07-18T09:55:42;10.20;;;3.33;;
5867;SDS011;2960;49.142;7.768;2022-07-18T09:58:14;9.67;;;3.10;;
5867;SDS011;2960;49.142;7.768;2022-07-18T10:00:45;9.83;;;3.10;;
5867;SDS011;2960;49.142;7.768;2022-07-18T10:03:12;10.00;;;3.30;;
5867;SDS011;2960;49.142;7.768;2022-07-18T10:05:41;10.07;;;3.47;;
5867;SDS011;2960;49.142;7.768;2022-07-18T10:08:13;9.73;;;3.20;;
5867;SDS011;2960;49.142;7.768;2022-07-18T10:10:44;9.83;;;3.10;;
5867;SDS011;2960;49.142;7.768;2022-07-18T10:13:13;9.77;;;3.20;;
5867;SDS011;2960;49.142;7.768;2022-07-18T10:15:42;9.67;;;3.03;;
5867;SDS011;2960;49.142;7.768;2022-07-18T10:18:11;10.83;;;2.90;;
5867;SDS011;2960;49.142;7.768;2022-07-18T10:20:43;9.67;;;2.97;;
5867;SDS011;2960;49.142;7.768;2022-07-18T10:23:17;10.00;;;3.40;;
5867;SDS011;2960;49.142;7.768;2022-07-18T10:31:37;10.00;;;3.10;;
5867;SDS011;2960;49.142;7.768;2022-07-18T10:34:11;9.77;;;3.27;;
5867;SDS011;2960;49.142;7.768;2022-07-18T10:36:39;10.03;;;3.40;;
5867;SDS011;2960;49.142;7.768;2022-07-18T10:39:10;9.80;;;3.20;;
5867;SDS011;2960;49.142;7.768;2022-07-18T10:44:40;9.67;;;3.10;;
5867;SDS011;2960;49.142;7.768;2022-07-18T10:47:08;9.80;;;3.13;;
5867;SDS011;2960;49.142;7.768;2022-07-18T10:55:32;10.30;;;3.20;;
5867;SDS011;2960;49.142;7.768;2022-07-18T10:58:19;10.20;;;3.10;;
5867;SDS011;2960;49.142;7.768;2022-07-18T11:00:52;9.83;;;3.30;;
5867;SDS011;2960;49.142;7.768;2022-07-18T11:03:28;9.80;;;3.00;;
5867;SDS011;2960;49.142;7.768;2022-07-18T11:05:56;9.37;;;2.63;;
5867;SDS011;2960;49.142;7.768;2022-07-18T11:08:24;9.83;;;2.90;;
5867;SDS011;2960;49.142;7.768;2022-07-18T11:11:13;9.50;;;3.00;;
5867;SDS011;2960;49.142;7.768;2022-07-18T11:13:42;9.50;;;2.73;;
5867;SDS011;2960;49.142;7.768;2022-07-18T11:16:15;9.80;;;3.20;;
5867;SDS011;2960;49.142;7.768;2022-07-18T11:21:45;9.67;;;3.03;;
5867;SDS011;2960;49.142;7.768;2022-07-18T11:24:12;9.43;;;3.10;;
5867;SDS011;2960;49.142;7.768;2022-07-18T11:26:44;9.43;;;3.00;;
5867;SDS011;2960;49.142;7.768;2022-07-18T11:29:14;9.47;;;2.87;;
5867;SDS011;2960;49.142;7.768;2022-07-18T11:31:44;9.80;;;3.17;;
5867;SDS011;2960;49.142;7.768;2022-07-18T11:34:13;9.93;;;3.10;;
5867;SDS011;2960;49.142;7.768;2022-07-18T11:36:41;9.63;;;3.10;;
5867;SDS011;2960;49.142;7.768;2022-07-18T11:39:11;9.50;;;3.07;;
5867;SDS011;2960;49.142;7.768;2022-07-18T11:41:40;10.67;;;3.07;;
5867;SDS011;2960;49.142;7.768;2022-07-18T11:44:18;9.70;;;3.10;;
5867;SDS011;2960;49.142;7.768;2022-07-18T11:47:00;9.20;;;2.60;;
5867;SDS011;2960;49.142;7.768;2022-07-18T11:49:29;9.43;;;2.83;;
5867;SDS011;2960;49.142;7.768;2022-07-18T11:51:56;9.50;;;3.20;;
5867;SDS011;2960;49.142;7.768;2022-07-18T11:54:24;9.90;;;3.20;;
5867;SDS011;2960;49.142;7.768;2022-07-18T11:56:53;9.50;;;2.90;;
5867;SDS011;2960;49.142;7.768;2022-07-18T11:59:22;10.70;;;2.93;;
5867;SDS011;2960;49.142;7.768;2022-07-18T12:02:02;9.80;;;2.93;;
5867;SDS011;2960;49.142;7.768;2022-07-18T12:04:30;9.17;;;2.67;;
5867;SDS011;2960;49.142;7.768;2022-07-18T12:07:16;9.27;;;2.70;;
5867;SDS011;2960;49.142;7.768;2022-07-18T12:09:45;9.90;;;2.90;;
5867;SDS011;2960;49.142;7.768;2022-07-18T12:12:14;9.43;;;3.10;;
5867;SDS011;2960;49.142;7.768;2022-07-18T12:14:43;9.50;;;3.00;;
5867;SDS011;2960;49.142;7.768;2022-07-18T12:17:20;9.10;;;2.67;;
5867;SDS011;2960;49.142;7.768;2022-07-18T12:19:47;9.37;;;2.90;;
5867;SDS011;2960;49.142;7.768;2022-07-18T12:22:14;9.20;;;2.80;;
5867;SDS011;2960;49.142;7.768;2022-07-18T12:24:49;9.80;;;3.13;;
5867;SDS011;2960;49.142;7.768;2022-07-18T12:27:20;9.60;;;2.83;;
5867;SDS011;2960;49.142;7.768;2022-07-18T12:29:58;9.57;;;3.30;;
5867;SDS011;2960;49.142;7.768;2022-07-18T12:32:29;9.30;;;2.80;;
5867;SDS011;2960;49.142;7.768;2022-07-18T12:35:04;9.20;;;2.70;;
5867;SDS011;2960;49.142;7.768;2022-07-18T12:37:33;9.70;;;3.30;;
5867;SDS011;2960;49.142;7.768;2022-07-18T12:40:02;9.53;;;3.23;;
5867;SDS011;2960;49.142;7.768;2022-07-18T12:42:32;9.57;;;3.17;;
5867;SDS011;2960;49.142;7.768;2022-07-18T12:45:04;9.33;;;3.10;;
5867;SDS011;2960;49.142;7.768;2022-07-18T12:47:33;9.27;;;2.90;;
5867;SDS011;2960;49.142;7.768;2022-07-18T12:50:00;9.17;;;2.80;;
5867;SDS011;2960;49.142;7.768;2022-07-18T12:52:28;9.20;;;2.87;;
5867;SDS011;2960;49.142;7.768;2022-07-18T12:54:55;9.33;;;2.97;;
5867;SDS011;2960;49.142;7.768;2022-07-18T12:57:23;9.50;;;3.00;;
5867;SDS011;2960;49.142;7.768;2022-07-18T12:59:50;9.10;;;2.70;;
5867;SDS011;2960;49.142;7.768;2022-07-18T13:02:19;9.27;;;2.83;;
5867;SDS011;2960;49.142;7.768;2022-07-18T13:04:46;9.63;;;2.73;;
5867;SDS011;2960;49.142;7.768;2022-07-18T13:07:13;9.10;;;2.80;;
5867;SDS011;2960;49.142;7.768;2022-07-18T13:09:40;9.30;;;3.17;;
5867;SDS011;2960;49.142;7.768;2022-07-18T13:12:07;9.40;;;3.17;;
5867;SDS011;2960;49.142;7.768;2022-07-18T13:14:34;8.97;;;2.60;;
5867;SDS011;2960;49.142;7.768;2022-07-18T13:17:01;9.83;;;2.77;;
5867;SDS011;2960;49.142;7.768;2022-07-18T13:19:30;9.20;;;2.97;;
5867;SDS011;2960;49.142;7.768;2022-07-18T13:21:57;9.20;;;2.83;;
5867;SDS011;2960;49.142;7.768;2022-07-18T13:24:25;9.10;;;2.70;;
5867;SDS011;2960;49.142;7.768;2022-07-18T13:26:52;9.00;;;2.60;;
5867;SDS011;2960;49.142;7.768;2022-07-18T13:29:20;9.90;;;2.93;;
5867;SDS011;2960;49.142;7.768;2022-07-18T13:31:48;9.27;;;3.00;;
5867;SDS011;2960;49.142;7.768;2022-07-18T13:34:16;9.90;;;2.80;;
5867;SDS011;2960;49.142;7.768;2022-07-18T13:36:48;9.27;;;3.00;;
5867;SDS011;2960;49.142;7.768;2022-07-18T13:39:16;9.50;;;3.00;;
5867;SDS011;2960;49.142;7.768;2022-07-18T13:41:44;9.40;;;3.10;;
5867;SDS011;2960;49.142;7.768;2022-07-18T13:44:12;9.30;;;2.90;;
5867;SDS011;2960;49.142;7.768;2022-07-18T13:46:39;10.67;;;3.00;;
5867;SDS011;2960;49.142;7.768;2022-07-18T13:49:07;9.27;;;3.00;;
5867;SDS011;2960;49.142;7.768;2022-07-18T13:51:36;9.43;;;3.10;;
5867;SDS011;2960;49.142;7.768;2022-07-18T13:54:05;9.03;;;2.90;;
5867;SDS011;2960;49.142;7.768;2022-07-18T13:56:33;9.30;;;3.00;;
5867;SDS011;2960;49.142;7.768;2022-07-18T13:59:00;9.33;;;3.03;;
5867;SDS011;2960;49.142;7.768;2022-07-18T14:01:27;9.77;;;3.07;;
5867;SDS011;2960;49.142;7.768;2022-07-18T14:03:54;9.27;;;2.97;;
5867;SDS011;2960;49.142;7.768;2022-07-18T14:06:21;9.23;;;2.90;;
5867;SDS011;2960;49.142;7.768;2022-07-18T14:08:48;9.33;;;2.97;;
5867;SDS011;2960;49.142;7.768;2022-07-18T14:11:17;9.27;;;2.97;;
5867;SDS011;2960;49.142;7.768;2022-07-18T14:13:45;10.50;;;3.30;;
5867;SDS011;2960;49.142;7.768;2022-07-18T14:16:13;9.37;;;2.90;;
5867;SDS011;2960;49.142;7.768;2022-07-18T14:18:40;9.27;;;3.10;;
5867;SDS011;2960;49.142;7.768;2022-07-18T14:21:08;9.30;;;3.10;;
5867;SDS011;2960;49.142;7.768;2022-07-18T14:23:35;9.50;;;3.13;;
5867;SDS011;2960;49.142;7.768;2022-07-18T14:26:02;9.33;;;2.70;;
5867;SDS011;2960;49.142;7.768;2022-07-18T14:28:30;9.90;;;3.40;;
5867;SDS011;2960;49.142;7.768;2022-07-18T14:30:57;9.63;;;3.40;;
5867;SDS011;2960;49.142;7.768;2022-07-18T14:33:25;9.43;;;3.00;;
5867;SDS011;2960;49.142;7.768;2022-07-18T14:35:52;9.67;;;3.00;;
5867;SDS011;2960;49.142;7.768;2022-07-18T14:38:19;9.43;;;3.20;;
5867;SDS011;2960;49.142;7.768;2022-07-18T14:40:46;9.37;;;3.00;;
5867;SDS011;2960;49.142;7.768;2022-07-18T14:43:14;9.70;;;3.20;;
5867;SDS011;2960;49.142;7.768;2022-07-18T14:45:43;10.20;;;3.20;;
5867;SDS011;2960;49.142;7.768;2022-07-18T14:48:10;9.90;;;3.13;;
5867;SDS011;2960;49.142;7.768;2022-07-18T14:50:37;9.50;;;3.20;;
5867;SDS011;2960;49.142;7.768;2022-07-18T14:53:04;9.30;;;2.87;;
5867;SDS011;2960;49.142;7.768;2022-07-18T14:55:32;9.57;;;3.20;;
5867;SDS011;2960;49.142;7.768;2022-07-18T14:57:59;9.43;;;3.20;;
5867;SDS011;2960;49.142;7.768;2022-07-18T15:00:28;9.53;;;2.90;;
5867;SDS011;2960;49.142;7.768;2022-07-18T15:02:56;9.50;;;3.00;;
5867;SDS011;2960;49.142;7.768;2022-07-18T15:05:24;9.80;;;3.40;;
5867;SDS011;2960;49.142;7.768;2022-07-18T15:07:51;9.33;;;3.00;;
5867;SDS011;2960;49.142;7.768;2022-07-18T15:10:18;9.70;;;3.20;;
5867;SDS011;2960;49.142;7.768;2022-07-18T15:12:45;9.27;;;3.03;;
5867;SDS011;2960;49.142;7.768;2022-07-18T15:15:12;9.33;;;2.70;;
5867;SDS011;2960;49.142;7.768;2022-07-18T15:17:39;9.53;;;3.13;;
5867;SDS011;2960;49.142;7.768;2022-07-18T15:20:09;9.70;;;3.17;;
5867;SDS011;2960;49.142;7.768;2022-07-18T15:22:37;9.40;;;3.10;;
5867;SDS011;2960;49.142;7.768;2022-07-18T15:25:04;9.50;;;3.00;;
5867;SDS011;2960;49.142;7.768;2022-07-18T15:27:33;10.60;;;3.23;;
5867;SDS011;2960;49.142;7.768;2022-07-18T15:30:00;9.97;;;3.07;;